Terminal Aerodrome Forecast
Issued by NWS

Home | Current Version | Previous Version | Text Only | Print | Product List | Glossary On
Versions: 1 2 3 4 5 6 7 8 9 10 11 12
514
FTUS44 KSJT 201135
TAFBBD
TAF
KBBD 201135Z 2012/2112 15005KT P6SM OVC012
     FM201900 17011G17KT P6SM BKN025
     FM202200 16012KT P6SM BKN040
     FM210100 16006KT P6SM BKN050
     FM211100 16008KT P6SM BKN015
      AMD NOT SKED=

USA.gov is the U.S. government's official web portal to all federal, state and local government web resources and services.